Guthrie, Missouri
Current Conditions -  °F | °C
As of 4:53 AM on Friday 31 Oct 2014 (Local Time) from KJEF Reporting Station
Overcast Overcast  
Wind Chill: 50°   Ceiling: 6000
Heat Index: 50°   Visibility: 10mi
Dew Point: 42°   Wind: 13mph
Humidity: 74%   Direction: 340°NNW
Pressure: 30.19"   Gusts: NA
Location:  38.718°N, 92.0861°W
Report Text: KJEF 310953Z AUTO 34011KT 10SM OVC060 10/06 A3019 RMK AO2 SLP213 T01000056
Loading
Personal Weather Stations






























Interactive Weather Map
Tropical Storm Tracking
New forecast layout! Learn more

10-Day Weather Forecast

Advertisements
Track Severe Weather on mobile